sensor_id;sensor_type;location;lat;lon;timestamp;temperature;humidity
10885;DHT22;5495;53.252;10.390;2023-03-03T00:01:02;2.50;99.90
10885;DHT22;5495;53.252;10.390;2023-03-03T00:03:39;3.20;99.90
10885;DHT22;5495;53.252;10.390;2023-03-03T00:06:09;2.90;99.90
10885;DHT22;5495;53.252;10.390;2023-03-03T00:08:40;2.50;99.90
10885;DHT22;5495;53.252;10.390;2023-03-03T00:11:19;3.00;99.90
10885;DHT22;5495;53.252;10.390;2023-03-03T00:13:53;3.00;99.90
10885;DHT22;5495;53.252;10.390;2023-03-03T00:16:31;2.50;99.90
10885;DHT22;5495;53.252;10.390;2023-03-03T00:19:12;3.10;99.90
10885;DHT22;5495;53.252;10.390;2023-03-03T00:21:48;3.20;99.90
10885;DHT22;5495;53.252;10.390;2023-03-03T00:24:23;2.70;99.90
10885;DHT22;5495;53.252;10.390;2023-03-03T00:26:51;2.60;99.90
10885;DHT22;5495;53.252;10.390;2023-03-03T00:29:29;2.30;99.90
10885;DHT22;5495;53.252;10.390;2023-03-03T00:32:26;2.00;99.90
10885;DHT22;5495;53.252;10.390;2023-03-03T00:35:02;2.60;99.90
10885;DHT22;5495;53.252;10.390;2023-03-03T00:37:45;2.70;99.90
10885;DHT22;5495;53.252;10.390;2023-03-03T00:40:32;5.40;99.90
10885;DHT22;5495;53.252;10.390;2023-03-03T00:43:11;2.70;99.90
10885;DHT22;5495;53.252;10.390;2023-03-03T00:45:43;2.60;99.90
10885;DHT22;5495;53.252;10.390;2023-03-03T00:48:25;2.60;99.90
10885;DHT22;5495;53.252;10.390;2023-03-03T00:50:57;0.40;99.90
10885;DHT22;5495;53.252;10.390;2023-03-03T00:53:27;2.90;99.90
10885;DHT22;5495;53.252;10.390;2023-03-03T00:56:01;2.90;99.90
10885;DHT22;5495;53.252;10.390;2023-03-03T00:58:31;2.80;99.90
10885;DHT22;5495;53.252;10.390;2023-03-03T01:00:59;5.10;99.90
10885;DHT22;5495;53.252;10.390;2023-03-03T01:03:26;2.70;99.90
10885;DHT22;5495;53.252;10.390;2023-03-03T01:06:05;3.10;99.90
10885;DHT22;5495;53.252;10.390;2023-03-03T01:08:40;2.90;99.90
10885;DHT22;5495;53.252;10.390;2023-03-03T01:11:10;2.80;99.90
10885;DHT22;5495;53.252;10.390;2023-03-03T01:13:40;2.80;99.90
10885;DHT22;5495;53.252;10.390;2023-03-03T01:16:08;2.80;99.90
10885;DHT22;5495;53.252;10.390;2023-03-03T01:18:37;2.90;99.90
10885;DHT22;5495;53.252;10.390;2023-03-03T01:21:05;3.00;99.90
10885;DHT22;5495;53.252;10.390;2023-03-03T01:23:32;2.90;99.90
10885;DHT22;5495;53.252;10.390;2023-03-03T01:26:04;3.00;99.90
10885;DHT22;5495;53.252;10.390;2023-03-03T01:28:34;3.10;99.90
10885;DHT22;5495;53.252;10.390;2023-03-03T01:31:07;3.00;99.90
10885;DHT22;5495;53.252;10.390;2023-03-03T01:33:35;3.00;99.90
10885;DHT22;5495;53.252;10.390;2023-03-03T01:36:04;3.30;99.90
10885;DHT22;5495;53.252;10.390;2023-03-03T01:38:35;3.60;99.90
10885;DHT22;5495;53.252;10.390;2023-03-03T01:41:09;3.00;99.90
10885;DHT22;5495;53.252;10.390;2023-03-03T01:43:42;3.00;99.90
10885;DHT22;5495;53.252;10.390;2023-03-03T01:46:50;3.00;99.90
10885;DHT22;5495;53.252;10.390;2023-03-03T01:49:22;2.90;99.90
10885;DHT22;5495;53.252;10.390;2023-03-03T01:51:57;3.30;99.90
10885;DHT22;5495;53.252;10.390;2023-03-03T01:54:32;1.80;99.90
10885;DHT22;5495;53.252;10.390;2023-03-03T01:57:11;3.70;99.90
10885;DHT22;5495;53.252;10.390;2023-03-03T01:59:49;3.20;99.90
10885;DHT22;5495;53.252;10.390;2023-03-03T02:02:19;3.10;99.90
10885;DHT22;5495;53.252;10.390;2023-03-03T02:04:48;3.50;99.90
10885;DHT22;5495;53.252;10.390;2023-03-03T02:07:17;3.20;99.90
10885;DHT22;5495;53.252;10.390;2023-03-03T02:09:56;3.30;99.90
10885;DHT22;5495;53.252;10.390;2023-03-03T02:12:37;3.10;99.90
10885;DHT22;5495;53.252;10.390;2023-03-03T02:15:19;2.30;99.90
10885;DHT22;5495;53.252;10.390;2023-03-03T02:17:47;3.20;99.90
10885;DHT22;5495;53.252;10.390;2023-03-03T02:20:24;3.50;99.90
10885;DHT22;5495;53.252;10.390;2023-03-03T02:22:59;2.70;99.90
10885;DHT22;5495;53.252;10.390;2023-03-03T02:25:46;3.10;99.90
10885;DHT22;5495;53.252;10.390;2023-03-03T02:28:25;3.10;99.90
10885;DHT22;5495;53.252;10.390;2023-03-03T02:30:54;2.40;99.90
10885;DHT22;5495;53.252;10.390;2023-03-03T02:33:22;0.20;99.90
10885;DHT22;5495;53.252;10.390;2023-03-03T02:35:52;1.00;99.90
10885;DHT22;5495;53.252;10.390;2023-03-03T02:38:36;2.90;99.90
10885;DHT22;5495;53.252;10.390;2023-03-03T02:41:28;5.00;99.90
10885;DHT22;5495;53.252;10.390;2023-03-03T02:44:02;3.10;99.90
10885;DHT22;5495;53.252;10.390;2023-03-03T02:46:33;2.80;99.90
10885;DHT22;5495;53.252;10.390;2023-03-03T02:49:14;2.90;99.90
10885;DHT22;5495;53.252;10.390;2023-03-03T02:51:42;2.90;99.90
10885;DHT22;5495;53.252;10.390;2023-03-03T02:54:12;2.80;99.90
10885;DHT22;5495;53.252;10.390;2023-03-03T02:56:40;2.90;99.90
10885;DHT22;5495;53.252;10.390;2023-03-03T02:59:09;2.60;99.90
10885;DHT22;5495;53.252;10.390;2023-03-03T03:01:37;2.80;99.90
10885;DHT22;5495;53.252;10.390;2023-03-03T03:04:06;2.80;99.90
10885;DHT22;5495;53.252;10.390;2023-03-03T03:06:34;3.10;99.90
10885;DHT22;5495;53.252;10.390;2023-03-03T03:09:10;2.90;99.90
10885;DHT22;5495;53.252;10.390;2023-03-03T03:11:38;2.20;99.90
10885;DHT22;5495;53.252;10.390;2023-03-03T03:14:13;3.30;99.90
10885;DHT22;5495;53.252;10.390;2023-03-03T03:16:45;3.30;99.90
10885;DHT22;5495;53.252;10.390;2023-03-03T03:19:15;2.90;99.90
10885;DHT22;5495;53.252;10.390;2023-03-03T03:21:48;2.80;99.90
10885;DHT22;5495;53.252;10.390;2023-03-03T03:24:23;2.70;99.90
10885;DHT22;5495;53.252;10.390;2023-03-03T03:26:50;3.10;99.90
10885;DHT22;5495;53.252;10.390;2023-03-03T03:29:22;2.70;99.90
10885;DHT22;5495;53.252;10.390;2023-03-03T03:31:49;3.20;99.90
10885;DHT22;5495;53.252;10.390;2023-03-03T03:34:28;2.70;99.90
10885;DHT22;5495;53.252;10.390;2023-03-03T03:36:56;2.90;99.90
10885;DHT22;5495;53.252;10.390;2023-03-03T03:39:28;3.20;99.90
10885;DHT22;5495;53.252;10.390;2023-03-03T03:41:56;2.90;99.90
10885;DHT22;5495;53.252;10.390;2023-03-03T03:44:33;2.80;99.90
10885;DHT22;5495;53.252;10.390;2023-03-03T03:47:11;2.80;99.90
10885;DHT22;5495;53.252;10.390;2023-03-03T03:49:45;3.00;99.90
10885;DHT22;5495;53.252;10.390;2023-03-03T03:52:16;2.70;99.90
10885;DHT22;5495;53.252;10.390;2023-03-03T03:54:44;2.80;99.90
10885;DHT22;5495;53.252;10.390;2023-03-03T03:57:14;2.80;99.90
10885;DHT22;5495;53.252;10.390;2023-03-03T03:59:59;0.30;99.90
10885;DHT22;5495;53.252;10.390;2023-03-03T04:02:32;3.40;99.90
10885;DHT22;5495;53.252;10.390;2023-03-03T04:05:00;2.80;99.90
10885;DHT22;5495;53.252;10.390;2023-03-03T04:07:27;3.20;99.90
10885;DHT22;5495;53.252;10.390;2023-03-03T04:09:55;2.80;99.90
10885;DHT22;5495;53.252;10.390;2023-03-03T04:12:25;2.70;99.90
10885;DHT22;5495;53.252;10.390;2023-03-03T04:15:00;2.70;99.90
10885;DHT22;5495;53.252;10.390;2023-03-03T04:17:27;2.80;99.90
10885;DHT22;5495;53.252;10.390;2023-03-03T04:19:55;3.10;99.90
10885;DHT22;5495;53.252;10.390;2023-03-03T04:22:23;3.20;99.90
10885;DHT22;5495;53.252;10.390;2023-03-03T04:24:50;2.80;99.90
10885;DHT22;5495;53.252;10.390;2023-03-03T04:27:17;2.40;99.90
10885;DHT22;5495;53.252;10.390;2023-03-03T04:29:50;0.20;99.90
10885;DHT22;5495;53.252;10.390;2023-03-03T04:32:22;2.80;99.90
10885;DHT22;5495;53.252;10.390;2023-03-03T04:34:53;3.30;99.90
10885;DHT22;5495;53.252;10.390;2023-03-03T04:37:30;3.40;99.90
10885;DHT22;5495;53.252;10.390;2023-03-03T04:39:59;3.20;99.90
10885;DHT22;5495;53.252;10.390;2023-03-03T04:42:27;2.80;99.90
10885;DHT22;5495;53.252;10.390;2023-03-03T04:45:03;2.90;99.90
10885;DHT22;5495;53.252;10.390;2023-03-03T04:47:37;3.00;99.90
10885;DHT22;5495;53.252;10.390;2023-03-03T04:50:06;3.00;99.90
10885;DHT22;5495;53.252;10.390;2023-03-03T04:52:34;2.90;99.90
10885;DHT22;5495;53.252;10.390;2023-03-03T04:55:03;2.80;99.90
10885;DHT22;5495;53.252;10.390;2023-03-03T04:57:34;2.80;99.90
10885;DHT22;5495;53.252;10.390;2023-03-03T05:00:01;2.70;99.90
10885;DHT22;5495;53.252;10.390;2023-03-03T05:02:40;0.80;99.90
10885;DHT22;5495;53.252;10.390;2023-03-03T05:05:08;2.00;99.90
10885;DHT22;5495;53.252;10.390;2023-03-03T05:07:42;3.00;99.90
10885;DHT22;5495;53.252;10.390;2023-03-03T05:10:10;3.30;99.90
10885;DHT22;5495;53.252;10.390;2023-03-03T05:12:37;2.90;99.90
10885;DHT22;5495;53.252;10.390;2023-03-03T05:15:11;3.40;99.90
10885;DHT22;5495;53.252;10.390;2023-03-03T05:17:47;2.90;99.90
10885;DHT22;5495;53.252;10.390;2023-03-03T05:20:22;2.90;99.90
10885;DHT22;5495;53.252;10.390;2023-03-03T05:22:53;0.70;99.90
10885;DHT22;5495;53.252;10.390;2023-03-03T05:25:28;2.90;99.90
10885;DHT22;5495;53.252;10.390;2023-03-03T05:27:56;2.80;99.90
10885;DHT22;5495;53.252;10.390;2023-03-03T05:30:26;2.50;99.90
10885;DHT22;5495;53.252;10.390;2023-03-03T05:32:56;2.70;99.90
10885;DHT22;5495;53.252;10.390;2023-03-03T05:35:34;2.70;99.90
10885;DHT22;5495;53.252;10.390;2023-03-03T05:38:05;3.30;99.90
10885;DHT22;5495;53.252;10.390;2023-03-03T05:40:39;2.90;99.90
10885;DHT22;5495;53.252;10.390;2023-03-03T05:43:06;2.90;99.90
10885;DHT22;5495;53.252;10.390;2023-03-03T05:48:25;3.80;99.90
10885;DHT22;5495;53.252;10.390;2023-03-03T05:51:00;2.80;99.90
10885;DHT22;5495;53.252;10.390;2023-03-03T05:53:31;2.90;99.90
10885;DHT22;5495;53.252;10.390;2023-03-03T05:56:09;2.70;99.90
10885;DHT22;5495;53.252;10.390;2023-03-03T05:58:37;2.10;99.90
10885;DHT22;5495;53.252;10.390;2023-03-03T06:01:09;3.40;99.90
10885;DHT22;5495;53.252;10.390;2023-03-03T06:03:53;2.90;99.90
10885;DHT22;5495;53.252;10.390;2023-03-03T06:06:23;2.90;99.90
10885;DHT22;5495;53.252;10.390;2023-03-03T06:09:00;0.60;99.90
10885;DHT22;5495;53.252;10.390;2023-03-03T06:11:33;4.40;99.90
10885;DHT22;5495;53.252;10.390;2023-03-03T06:14:02;1.90;99.90
10885;DHT22;5495;53.252;10.390;2023-03-03T06:16:32;2.70;99.90
10885;DHT22;5495;53.252;10.390;2023-03-03T06:19:03;2.80;99.90
10885;DHT22;5495;53.252;10.390;2023-03-03T06:21:34;2.80;99.90
10885;DHT22;5495;53.252;10.390;2023-03-03T06:24:07;2.70;99.90
10885;DHT22;5495;53.252;10.390;2023-03-03T06:26:38;2.70;99.90
10885;DHT22;5495;53.252;10.390;2023-03-03T06:29:08;2.70;99.90
10885;DHT22;5495;53.252;10.390;2023-03-03T06:31:40;2.60;99.90
10885;DHT22;5495;53.252;10.390;2023-03-03T06:34:12;1.00;99.90
10885;DHT22;5495;53.252;10.390;2023-03-03T06:36:45;2.50;99.90
10885;DHT22;5495;53.252;10.390;2023-03-03T06:39:16;2.60;99.90
10885;DHT22;5495;53.252;10.390;2023-03-03T06:41:49;6.20;99.90
10885;DHT22;5495;53.252;10.390;2023-03-03T06:44:37;4.30;99.90
10885;DHT22;5495;53.252;10.390;2023-03-03T06:47:08;3.30;99.90
10885;DHT22;5495;53.252;10.390;2023-03-03T06:49:38;2.70;99.90
10885;DHT22;5495;53.252;10.390;2023-03-03T06:52:27;5.20;99.90
10885;DHT22;5495;53.252;10.390;2023-03-03T06:54:59;3.10;99.90
10885;DHT22;5495;53.252;10.390;2023-03-03T06:58:03;2.70;99.90
10885;DHT22;5495;53.252;10.390;2023-03-03T07:00:52;1.40;99.90
10885;DHT22;5495;53.252;10.390;2023-03-03T07:03:34;2.30;99.90
10885;DHT22;5495;53.252;10.390;2023-03-03T07:06:19;2.90;99.90
10885;DHT22;5495;53.252;10.390;2023-03-03T07:08:53;2.80;99.90
10885;DHT22;5495;53.252;10.390;2023-03-03T07:11:24;3.20;99.90
10885;DHT22;5495;53.252;10.390;2023-03-03T07:13:57;2.90;99.90
10885;DHT22;5495;53.252;10.390;2023-03-03T07:16:27;2.40;99.90
10885;DHT22;5495;53.252;10.390;2023-03-03T07:19:00;1.10;99.90
10885;DHT22;5495;53.252;10.390;2023-03-03T07:21:43;2.80;99.90
10885;DHT22;5495;53.252;10.390;2023-03-03T07:24:28;3.40;99.90
10885;DHT22;5495;53.252;10.390;2023-03-03T07:27:05;2.90;99.90
10885;DHT22;5495;53.252;10.390;2023-03-03T07:29:40;3.20;99.90
10885;DHT22;5495;53.252;10.390;2023-03-03T07:32:26;3.10;99.90
10885;DHT22;5495;53.252;10.390;2023-03-03T07:34:58;3.00;99.90
10885;DHT22;5495;53.252;10.390;2023-03-03T07:39:20;3.10;99.90
10885;DHT22;5495;53.252;10.390;2023-03-03T07:40:45;3.60;99.90
10885;DHT22;5495;53.252;10.390;2023-03-03T07:43:43;3.10;99.90
10885;DHT22;5495;53.252;10.390;2023-03-03T07:46:22;3.10;99.90
10885;DHT22;5495;53.252;10.390;2023-03-03T07:48:55;3.60;99.90
10885;DHT22;5495;53.252;10.390;2023-03-03T07:51:54;1.90;99.90
10885;DHT22;5495;53.252;10.390;2023-03-03T07:54:45;2.70;99.90
10885;DHT22;5495;53.252;10.390;2023-03-03T07:57:29;3.40;99.90
10885;DHT22;5495;53.252;10.390;2023-03-03T08:03:13;3.10;99.90
10885;DHT22;5495;53.252;10.390;2023-03-03T08:05:47;0.80;99.90
10885;DHT22;5495;53.252;10.390;2023-03-03T08:08:36;3.30;99.90
10885;DHT22;5495;53.252;10.390;2023-03-03T08:11:24;3.10;99.90
10885;DHT22;5495;53.252;10.390;2023-03-03T08:14:18;3.80;99.90
10885;DHT22;5495;53.252;10.390;2023-03-03T08:16:54;3.10;99.90
10885;DHT22;5495;53.252;10.390;2023-03-03T08:19:35;3.20;99.90
10885;DHT22;5495;53.252;10.390;2023-03-03T08:22:12;3.10;99.90
10885;DHT22;5495;53.252;10.390;2023-03-03T08:24:48;3.10;99.90
10885;DHT22;5495;53.252;10.390;2023-03-03T08:27:25;3.00;99.90
10885;DHT22;5495;53.252;10.390;2023-03-03T08:30:23;3.40;99.90
10885;DHT22;5495;53.252;10.390;2023-03-03T08:33:01;3.30;99.90
10885;DHT22;5495;53.252;10.390;2023-03-03T08:36:00;3.10;99.90
10885;DHT22;5495;53.252;10.390;2023-03-03T08:38:30;5.00;99.90
10885;DHT22;5495;53.252;10.390;2023-03-03T08:41:01;2.90;99.90
10885;DHT22;5495;53.252;10.390;2023-03-03T08:43:30;3.30;99.90
10885;DHT22;5495;53.252;10.390;2023-03-03T08:46:07;3.30;99.90
10885;DHT22;5495;53.252;10.390;2023-03-03T08:48:40;3.00;99.90
10885;DHT22;5495;53.252;10.390;2023-03-03T08:51:34;3.40;99.90
10885;DHT22;5495;53.252;10.390;2023-03-03T08:54:32;4.40;99.90
10885;DHT22;5495;53.252;10.390;2023-03-03T08:57:10;3.30;99.90
10885;DHT22;5495;53.252;10.390;2023-03-03T08:59:43;3.10;99.90
10885;DHT22;5495;53.252;10.390;2023-03-03T09:02:16;3.30;99.90
10885;DHT22;5495;53.252;10.390;2023-03-03T09:04:48;4.00;99.90
10885;DHT22;5495;53.252;10.390;2023-03-03T09:07:19;3.60;99.90
10885;DHT22;5495;53.252;10.390;2023-03-03T09:09:56;3.10;99.90
10885;DHT22;5495;53.252;10.390;2023-03-03T09:12:30;3.70;99.90
10885;DHT22;5495;53.252;10.390;2023-03-03T09:15:14;3.80;99.90
10885;DHT22;5495;53.252;10.390;2023-03-03T09:17:53;3.90;99.90
10885;DHT22;5495;53.252;10.390;2023-03-03T09:20:31;3.90;99.90
10885;DHT22;5495;53.252;10.390;2023-03-03T09:23:36;4.00;99.90
10885;DHT22;5495;53.252;10.390;2023-03-03T09:26:27;4.10;99.90
10885;DHT22;5495;53.252;10.390;2023-03-03T09:32:16;5.10;99.90
10885;DHT22;5495;53.252;10.390;2023-03-03T09:34:51;3.70;99.90
10885;DHT22;5495;53.252;10.390;2023-03-03T09:37:25;3.80;99.90
10885;DHT22;5495;53.252;10.390;2023-03-03T09:39:55;3.90;99.90
10885;DHT22;5495;53.252;10.390;2023-03-03T09:42:51;3.80;99.90
10885;DHT22;5495;53.252;10.390;2023-03-03T09:45:42;3.90;99.90
10885;DHT22;5495;53.252;10.390;2023-03-03T09:48:49;4.00;99.90
10885;DHT22;5495;53.252;10.390;2023-03-03T09:54:47;2.20;99.90
10885;DHT22;5495;53.252;10.390;2023-03-03T09:57:31;3.70;99.90
10885;DHT22;5495;53.252;10.390;2023-03-03T10:03:32;4.50;99.90
10885;DHT22;5495;53.252;10.390;2023-03-03T10:06:36;4.30;99.90
10885;DHT22;5495;53.252;10.390;2023-03-03T10:12:34;4.20;99.90
10885;DHT22;5495;53.252;10.390;2023-03-03T10:15:26;4.50;99.90
10885;DHT22;5495;53.252;10.390;2023-03-03T10:18:20;4.10;99.90
10885;DHT22;5495;53.252;10.390;2023-03-03T10:21:03;4.40;99.90
10885;DHT22;5495;53.252;10.390;2023-03-03T10:23:52;4.90;99.90
10885;DHT22;5495;53.252;10.390;2023-03-03T10:26:38;4.60;99.90
10885;DHT22;5495;53.252;10.390;2023-03-03T10:29:26;3.40;99.90
10885;DHT22;5495;53.252;10.390;2023-03-03T10:32:31;4.70;99.90
10885;DHT22;5495;53.252;10.390;2023-03-03T10:35:29;4.70;99.90
10885;DHT22;5495;53.252;10.390;2023-03-03T10:38:28;4.60;99.90
10885;DHT22;5495;53.252;10.390;2023-03-03T10:41:12;4.60;99.90
10885;DHT22;5495;53.252;10.390;2023-03-03T10:44:05;5.50;99.90
10885;DHT22;5495;53.252;10.390;2023-03-03T10:46:54;5.90;99.90
10885;DHT22;5495;53.252;10.390;2023-03-03T10:49:47;5.60;99.90
10885;DHT22;5495;53.252;10.390;2023-03-03T10:52:31;5.50;99.90
10885;DHT22;5495;53.252;10.390;2023-03-03T10:55:26;6.00;99.90
10885;DHT22;5495;53.252;10.390;2023-03-03T10:58:18;6.10;99.90
10885;DHT22;5495;53.252;10.390;2023-03-03T11:00:51;6.10;99.90
10885;DHT22;5495;53.252;10.390;2023-03-03T11:06:45;6.60;99.90
10885;DHT22;5495;53.252;10.390;2023-03-03T11:12:24;6.70;99.90
10885;DHT22;5495;53.252;10.390;2023-03-03T11:15:07;7.40;99.90
10885;DHT22;5495;53.252;10.390;2023-03-03T11:17:52;7.80;99.90
10885;DHT22;5495;53.252;10.390;2023-03-03T11:20:30;8.70;99.90
10885;DHT22;5495;53.252;10.390;2023-03-03T11:23:11;9.20;99.90
10885;DHT22;5495;53.252;10.390;2023-03-03T11:25:56;12.00;99.90
10885;DHT22;5495;53.252;10.390;2023-03-03T11:28:45;14.50;99.40
10885;DHT22;5495;53.252;10.390;2023-03-03T11:31:31;16.70;95.30
10885;DHT22;5495;53.252;10.390;2023-03-03T11:34:08;21.10;91.90
10885;DHT22;5495;53.252;10.390;2023-03-03T11:36:44;17.40;79.60
10885;DHT22;5495;53.252;10.390;2023-03-03T11:39:22;18.10;85.10
10885;DHT22;5495;53.252;10.390;2023-03-03T11:41:59;16.40;86.90
10885;DHT22;5495;53.252;10.390;2023-03-03T11:44:34;15.60;86.90
10885;DHT22;5495;53.252;10.390;2023-03-03T11:47:16;14.50;90.00
10885;DHT22;5495;53.252;10.390;2023-03-03T11:49:49;16.00;90.00
10885;DHT22;5495;53.252;10.390;2023-03-03T11:52:26;18.00;84.90
10885;DHT22;5495;53.252;10.390;2023-03-03T11:55:03;19.60;81.90
10885;DHT22;5495;53.252;10.390;2023-03-03T11:57:39;20.50;80.40
10885;DHT22;5495;53.252;10.390;2023-03-03T12:00:28;21.80;77.00
10885;DHT22;5495;53.252;10.390;2023-03-03T12:03:25;24.40;69.60
10885;DHT22;5495;53.252;10.390;2023-03-03T12:06:14;25.00;65.00
10885;DHT22;5495;53.252;10.390;2023-03-03T12:15:12;23.20;65.40
10885;DHT22;5495;53.252;10.390;2023-03-03T12:24:39;25.30;62.20
10885;DHT22;5495;53.252;10.390;2023-03-03T12:27:31;27.30;61.30
10885;DHT22;5495;53.252;10.390;2023-03-03T12:30:42;23.50;61.90
10885;DHT22;5495;53.252;10.390;2023-03-03T12:33:31;24.70;62.30
10885;DHT22;5495;53.252;10.390;2023-03-03T12:36:17;25.00;60.90
10885;DHT22;5495;53.252;10.390;2023-03-03T12:39:10;23.90;60.30
10885;DHT22;5495;53.252;10.390;2023-03-03T12:42:03;20.30;62.40
10885;DHT22;5495;53.252;10.390;2023-03-03T12:44:49;18.30;66.20
10885;DHT22;5495;53.252;10.390;2023-03-03T12:47:37;16.40;73.00
10885;DHT22;5495;53.252;10.390;2023-03-03T12:50:28;13.70;76.30
10885;DHT22;5495;53.252;10.390;2023-03-03T12:53:25;12.40;78.60
10885;DHT22;5495;53.252;10.390;2023-03-03T12:56:02;12.10;83.50
10885;DHT22;5495;53.252;10.390;2023-03-03T12:58:41;10.80;84.50
10885;DHT22;5495;53.252;10.390;2023-03-03T13:01:27;10.50;86.10
10885;DHT22;5495;53.252;10.390;2023-03-03T13:04:09;7.90;86.70
10885;DHT22;5495;53.252;10.390;2023-03-03T13:06:58;9.80;91.00
10885;DHT22;5495;53.252;10.390;2023-03-03T13:09:44;9.50;91.20
10885;DHT22;5495;53.252;10.390;2023-03-03T13:12:29;9.20;92.30
10885;DHT22;5495;53.252;10.390;2023-03-03T13:15:13;8.90;93.00
10885;DHT22;5495;53.252;10.390;2023-03-03T13:17:53;8.50;94.20
10885;DHT22;5495;53.252;10.390;2023-03-03T13:20:33;8.50;94.60
10885;DHT22;5495;53.252;10.390;2023-03-03T13:23:12;8.70;95.90
10885;DHT22;5495;53.252;10.390;2023-03-03T13:25:52;8.20;97.60
10885;DHT22;5495;53.252;10.390;2023-03-03T13:28:32;8.10;97.60
10885;DHT22;5495;53.252;10.390;2023-03-03T13:31:17;7.90;98.20
10885;DHT22;5495;53.252;10.390;2023-03-03T13:33:55;8.40;99.30
10885;DHT22;5495;53.252;10.390;2023-03-03T13:36:33;8.10;99.10
10885;DHT22;5495;53.252;10.390;2023-03-03T13:39:05;8.10;99.90
10885;DHT22;5495;53.252;10.390;2023-03-03T13:42:05;7.90;99.10
10885;DHT22;5495;53.252;10.390;2023-03-03T13:44:42;7.50;99.30
10885;DHT22;5495;53.252;10.390;2023-03-03T13:47:23;7.40;99.60
10885;DHT22;5495;53.252;10.390;2023-03-03T13:50:13;8.20;99.90
10885;DHT22;5495;53.252;10.390;2023-03-03T13:52:59;5.20;99.10
10885;DHT22;5495;53.252;10.390;2023-03-03T13:55:42;8.00;99.90
10885;DHT22;5495;53.252;10.390;2023-03-03T13:58:23;7.70;99.90
10885;DHT22;5495;53.252;10.390;2023-03-03T14:00:59;6.60;99.90
10885;DHT22;5495;53.252;10.390;2023-03-03T14:03:56;6.30;99.90
10885;DHT22;5495;53.252;10.390;2023-03-03T14:06:27;7.80;99.90
10885;DHT22;5495;53.252;10.390;2023-03-03T14:09:34;7.40;99.90
10885;DHT22;5495;53.252;10.390;2023-03-03T14:12:15;8.20;99.90
10885;DHT22;5495;53.252;10.390;2023-03-03T14:15:01;7.90;99.90
10885;DHT22;5495;53.252;10.390;2023-03-03T14:17:37;6.80;99.90
10885;DHT22;5495;53.252;10.390;2023-03-03T14:20:31;7.30;99.90
10885;DHT22;5495;53.252;10.390;2023-03-03T14:23:15;4.90;99.90
10885;DHT22;5495;53.252;10.390;2023-03-03T14:26:00;7.80;99.90
10885;DHT22;5495;53.252;10.390;2023-03-03T14:28:40;8.00;99.90
10885;DHT22;5495;53.252;10.390;2023-03-03T14:31:25;7.60;99.90
10885;DHT22;5495;53.252;10.390;2023-03-03T14:34:01;7.40;99.90
10885;DHT22;5495;53.252;10.390;2023-03-03T14:36:31;7.10;99.90
10885;DHT22;5495;53.252;10.390;2023-03-03T14:39:00;7.20;99.90
10885;DHT22;5495;53.252;10.390;2023-03-03T14:41:39;7.30;99.90
10885;DHT22;5495;53.252;10.390;2023-03-03T14:44:49;7.00;99.90
10885;DHT22;5495;53.252;10.390;2023-03-03T14:47:23;8.80;99.90
10885;DHT22;5495;53.252;10.390;2023-03-03T14:49:57;7.10;99.90
10885;DHT22;5495;53.252;10.390;2023-03-03T14:52:33;7.00;99.90
10885;DHT22;5495;53.252;10.390;2023-03-03T14:55:29;7.30;99.90
10885;DHT22;5495;53.252;10.390;2023-03-03T14:58:00;7.00;99.90
10885;DHT22;5495;53.252;10.390;2023-03-03T15:00:42;7.20;99.90
10885;DHT22;5495;53.252;10.390;2023-03-03T15:03:26;7.30;99.90
10885;DHT22;5495;53.252;10.390;2023-03-03T15:06:00;6.90;99.90
10885;DHT22;5495;53.252;10.390;2023-03-03T15:08:33;5.20;99.90
10885;DHT22;5495;53.252;10.390;2023-03-03T15:11:23;6.90;99.90
10885;DHT22;5495;53.252;10.390;2023-03-03T15:14:19;6.90;99.90
10885;DHT22;5495;53.252;10.390;2023-03-03T15:16:53;7.30;99.90
10885;DHT22;5495;53.252;10.390;2023-03-03T15:20:07;6.90;99.90
10885;DHT22;5495;53.252;10.390;2023-03-03T15:22:52;6.60;99.90
10885;DHT22;5495;53.252;10.390;2023-03-03T15:25:31;6.20;99.90
10885;DHT22;5495;53.252;10.390;2023-03-03T15:28:18;6.80;99.90
10885;DHT22;5495;53.252;10.390;2023-03-03T15:30:54;6.80;99.90
10885;DHT22;5495;53.252;10.390;2023-03-03T15:33:30;6.90;99.90
10885;DHT22;5495;53.252;10.390;2023-03-03T15:36:05;6.80;99.90
10885;DHT22;5495;53.252;10.390;2023-03-03T15:38:53;6.80;99.90
10885;DHT22;5495;53.252;10.390;2023-03-03T15:41:28;6.80;99.90
10885;DHT22;5495;53.252;10.390;2023-03-03T15:44:10;6.70;99.90
10885;DHT22;5495;53.252;10.390;2023-03-03T15:50:00;6.00;99.90
10885;DHT22;5495;53.252;10.390;2023-03-03T15:52:45;5.40;99.90
10885;DHT22;5495;53.252;10.390;2023-03-03T15:55:28;6.70;99.90
10885;DHT22;5495;53.252;10.390;2023-03-03T15:58:14;6.60;99.90
10885;DHT22;5495;53.252;10.390;2023-03-03T16:00:56;6.60;99.90
10885;DHT22;5495;53.252;10.390;2023-03-03T16:03:38;6.60;99.90
10885;DHT22;5495;53.252;10.390;2023-03-03T16:06:15;6.60;99.90
10885;DHT22;5495;53.252;10.390;2023-03-03T16:08:51;6.60;99.90
10885;DHT22;5495;53.252;10.390;2023-03-03T16:11:32;6.60;99.90
10885;DHT22;5495;53.252;10.390;2023-03-03T16:14:17;6.50;99.90
10885;DHT22;5495;53.252;10.390;2023-03-03T16:16:57;6.50;99.90
10885;DHT22;5495;53.252;10.390;2023-03-03T16:19:36;6.50;99.90
10885;DHT22;5495;53.252;10.390;2023-03-03T16:22:34;6.40;99.90
10885;DHT22;5495;53.252;10.390;2023-03-03T16:25:27;6.40;99.90
10885;DHT22;5495;53.252;10.390;2023-03-03T16:28:09;6.40;99.90
10885;DHT22;5495;53.252;10.390;2023-03-03T16:30:48;6.40;99.90
10885;DHT22;5495;53.252;10.390;2023-03-03T16:33:45;6.40;99.90
10885;DHT22;5495;53.252;10.390;2023-03-03T16:36:26;6.50;99.90
10885;DHT22;5495;53.252;10.390;2023-03-03T16:39:04;6.40;99.90
10885;DHT22;5495;53.252;10.390;2023-03-03T16:41:43;6.40;99.90
10885;DHT22;5495;53.252;10.390;2023-03-03T16:44:25;6.40;99.90
10885;DHT22;5495;53.252;10.390;2023-03-03T16:47:06;6.40;99.90
10885;DHT22;5495;53.252;10.390;2023-03-03T16:49:44;6.40;99.90
10885;DHT22;5495;53.252;10.390;2023-03-03T16:52:16;6.30;99.90
10885;DHT22;5495;53.252;10.390;2023-03-03T16:54:48;6.30;99.90
10885;DHT22;5495;53.252;10.390;2023-03-03T16:57:28;6.20;99.90
10885;DHT22;5495;53.252;10.390;2023-03-03T17:00:05;6.20;99.90
10885;DHT22;5495;53.252;10.390;2023-03-03T17:05:41;6.20;99.90
10885;DHT22;5495;53.252;10.390;2023-03-03T17:08:48;6.20;99.90
10885;DHT22;5495;53.252;10.390;2023-03-03T17:11:25;6.20;99.90
10885;DHT22;5495;53.252;10.390;2023-03-03T17:14:24;6.20;99.90
10885;DHT22;5495;53.252;10.390;2023-03-03T17:17:13;6.20;99.90
10885;DHT22;5495;53.252;10.390;2023-03-03T17:20:22;6.10;99.90
10885;DHT22;5495;53.252;10.390;2023-03-03T17:23:16;6.10;99.90
10885;DHT22;5495;53.252;10.390;2023-03-03T17:25:55;6.10;99.90
10885;DHT22;5495;53.252;10.390;2023-03-03T17:28:37;6.10;99.90
10885;DHT22;5495;53.252;10.390;2023-03-03T17:31:14;6.10;99.90
10885;DHT22;5495;53.252;10.390;2023-03-03T17:34:08;6.10;99.90
10885;DHT22;5495;53.252;10.390;2023-03-03T17:36:55;6.00;99.90
10885;DHT22;5495;53.252;10.390;2023-03-03T17:42:32;6.10;99.90
10885;DHT22;5495;53.252;10.390;2023-03-03T17:45:08;6.10;99.90
10885;DHT22;5495;53.252;10.390;2023-03-03T17:47:55;6.00;99.90